Time;durP1;ratioP1;P1;durP2;ratioP2;P2;SDS_P1;SDS_P2;PMS_P1;PMS_P2;Temp;Humidity;BMP_temperature;BMP_pressure;BME280_temperature;BME280_humidity;BME280_pressure;Samples;Min_cycle;Max_cycle;Signal;HPM_P1;HPM_P2
2021/03/07 00:00:34;;;;;;;4.38;2.05;;;;;;;-4.99;47.45;98868.63;5051789;28;20131;-52
2021/03/07 00:03:00;;;;;;;14.40;2.45;;;;;;;-4.83;47.35;98896.84;5052149;28;20531;-53
2021/03/07 00:05:25;;;;;;;6.90;2.47;;;;;;;-4.77;47.02;98880.97;5052688;28;20029;-49
2021/03/07 00:07:52;;;;;;;4.60;2.08;;;;;;;-4.94;47.27;98845.00;5052028;28;20512;-53
2021/03/07 00:10:19;;;;;;;4.75;1.80;;;;;;;-4.69;47.17;98842.44;5051937;28;20549;-54
2021/03/07 00:12:46;;;;;;;7.78;2.33;;;;;;;-4.58;46.80;98857.72;5051841;28;20037;-56
2021/03/07 00:15:14;;;;;;;4.18;2.03;;;;;;;-4.53;46.50;98858.41;5051304;28;20033;-57
2021/03/07 00:17:40;;;;;;;10.25;2.53;;;;;;;-4.44;46.22;98838.97;5052442;28;20032;-55
2021/03/07 00:20:10;;;;;;;6.82;2.13;;;;;;;-4.33;45.99;98825.53;5052382;28;20407;-56
2021/03/07 00:22:37;;;;;;;4.25;1.88;;;;;;;-4.24;45.73;98835.63;5052603;28;20041;-57
2021/03/07 00:25:08;;;;;;;6.45;1.98;;;;;;;-4.24;45.82;98819.06;5052637;28;20040;-56
2021/03/07 00:27:35;;;;;;;5.22;2.03;;;;;;;-4.19;44.84;98812.78;5053205;28;20037;-59
2021/03/07 00:30:02;;;;;;;4.32;1.95;;;;;;;-4.18;45.24;98797.97;5052403;28;20067;-54
2021/03/07 00:32:28;;;;;;;4.05;1.95;;;;;;;-4.08;45.00;98819.41;5052787;28;20450;-53
2021/03/07 00:34:54;;;;;;;5.13;1.98;;;;;;;-4.03;45.14;98812.22;5052459;28;20510;-56
2021/03/07 00:37:20;;;;;;;5.13;1.90;;;;;;;-3.96;44.86;98807.63;5052900;28;20041;-57
2021/03/07 00:39:46;;;;;;;3.47;1.95;;;;;;;-3.97;44.55;98770.16;5052559;28;20043;-54
2021/03/07 00:42:11;;;;;;;8.48;1.92;;;;;;;-3.89;44.73;98783.78;5050741;28;20036;-55
2021/03/07 00:44:37;;;;;;;5.28;1.88;;;;;;;-3.91;44.37;98776.94;5052231;28;20029;-53
2021/03/07 00:47:02;;;;;;;6.28;2.15;;;;;;;-3.85;44.35;98781.06;5053087;28;20037;-52
2021/03/07 00:49:30;;;;;;;6.00;2.03;;;;;;;-3.86;44.43;98761.91;5058035;28;20075;-56
2021/03/07 00:51:56;;;;;;;4.18;1.70;;;;;;;-3.85;44.12;98765.38;5056312;28;20071;-56
2021/03/07 00:54:22;;;;;;;5.30;2.03;;;;;;;-3.90;44.34;98766.38;5051834;28;20195;-57
2021/03/07 00:56:47;;;;;;;4.57;2.10;;;;;;;-3.94;44.60;98749.13;5053088;28;20096;-51
2021/03/07 00:59:13;;;;;;;3.85;1.92;;;;;;;-4.30;44.35;98676.44;5051709;28;20032;-54
2021/03/07 01:01:39;;;;;;;3.88;1.80;;;;;;;-3.86;44.71;98751.44;5051388;28;20539;-57
2021/03/07 01:04:06;;;;;;;4.18;1.90;;;;;;;-3.79;44.11;98744.22;5052070;28;20048;-57
2021/03/07 01:06:32;;;;;;;4.10;1.92;;;;;;;-3.74;44.27;98731.81;5051549;28;20439;-55
2021/03/07 01:08:57;;;;;;;6.03;2.08;;;;;;;-3.65;44.21;98720.97;5052364;28;20081;-55
2021/03/07 01:11:24;;;;;;;4.70;1.90;;;;;;;-3.59;43.96;98708.56;5051345;28;20045;-57
2021/03/07 01:13:50;;;;;;;4.30;1.73;;;;;;;-3.56;44.72;98701.41;5051940;28;20127;-62
2021/03/07 01:16:15;;;;;;;4.05;2.17;;;;;;;-3.53;44.39;98711.75;5051389;28;20124;-57
2021/03/07 01:18:41;;;;;;;5.20;2.00;;;;;;;-3.54;44.44;98686.50;5051203;28;20662;-56
2021/03/07 01:21:06;;;;;;;3.63;2.10;;;;;;;-3.50;45.14;98682.00;5052134;28;20033;-54
2021/03/07 01:23:33;;;;;;;3.47;1.50;;;;;;;-3.53;45.39;98675.13;5051458;28;20495;-57
2021/03/07 01:25:59;;;;;;;10.07;2.13;;;;;;;-3.52;45.14;98670.75;5050783;28;20086;-56
2021/03/07 01:28:25;;;;;;;7.85;2.10;;;;;;;-3.57;45.97;98654.41;5051346;28;20050;-54
2021/03/07 01:30:51;;;;;;;3.17;1.83;;;;;;;-4.28;46.04;98530.88;5051269;28;20032;-54
2021/03/07 01:33:18;;;;;;;5.35;1.65;;;;;;;-3.62;46.53;98645.00;5052331;28;20037;-59
2021/03/07 01:35:43;;;;;;;8.13;1.90;;;;;;;-3.71;46.49;98634.06;5051051;28;20033;-57
2021/03/07 01:38:09;;;;;;;3.80;1.63;;;;;;;-3.71;47.20;98634.06;5050964;28;20041;-58
2021/03/07 01:40:48;;;;;;;4.18;1.48;;;;;;;-3.77;48.46;98635.16;5050828;28;20040;-58
2021/03/07 01:43:14;;;;;;;6.97;1.73;;;;;;;-3.73;47.57;98621.03;5050548;28;20062;-57
2021/03/07 01:45:40;;;;;;;6.13;1.40;;;;;;;-3.76;48.06;98603.69;5051214;28;20040;-53
2021/03/07 01:48:08;;;;;;;4.50;1.73;;;;;;;-3.74;48.77;98614.09;5051398;28;20025;-57
2021/03/07 01:50:36;;;;;;;3.50;1.73;;;;;;;-3.79;48.96;98616.06;5062512;28;20040;-57
2021/03/07 01:53:03;;;;;;;5.25;1.55;;;;;;;-3.74;49.12;98601.00;5056347;28;20476;-55
2021/03/07 01:55:32;;;;;;;2.92;1.40;;;;;;;-4.15;49.71;98530.34;5058370;28;20401;-52
2021/03/07 01:58:11;;;;;;;3.10;1.23;;;;;;;-3.72;49.77;98572.19;5050942;28;20377;-53
2021/03/07 02:00:36;;;;;;;6.40;1.48;;;;;;;-3.78;49.71;98568.06;5051581;28;20139;-52
2021/03/07 02:03:02;;;;;;;2.50;1.40;;;;;;;-3.82;49.98;98590.03;5050288;28;20148;-58
2021/03/07 02:05:28;;;;;;;4.68;1.67;;;;;;;-3.86;50.00;98567.50;5050391;28;20056;-57
2021/03/07 02:07:54;;;;;;;2.72;1.23;;;;;;;-3.82;50.05;98562.09;5050659;28;20611;-59
2021/03/07 02:10:29;;;;;;;2.30;1.60;;;;;;;-3.94;50.80;98555.63;5050301;28;20030;-55
2021/03/07 02:12:59;;;;;;;3.30;1.80;;;;;;;-3.90;50.84;98572.03;5051222;28;20059;-54
2021/03/07 02:15:27;;;;;;;2.58;1.60;;;;;;;-4.08;51.08;98530.06;5050496;28;20063;-52
2021/03/07 02:17:53;;;;;;;5.72;1.60;;;;;;;-4.07;51.43;98563.13;5050655;28;20044;-57
2021/03/07 02:20:21;;;;;;;4.03;1.65;;;;;;;-4.07;51.54;98554.44;5049938;28;20044;-56
2021/03/07 02:23:03;;;;;;;3.05;1.40;;;;;;;-4.22;51.92;98530.63;5049633;28;20040;-51
2021/03/07 02:25:29;;;;;;;2.67;1.48;;;;;;;-4.64;51.71;98471.34;5051316;28;20124;-54
2021/03/07 02:27:56;;;;;;;6.25;1.67;;;;;;;-4.24;52.05;98539.44;5050642;28;20041;-59
2021/03/07 02:30:22;;;;;;;3.47;1.88;;;;;;;-4.19;51.89;98527.88;5050152;28;20444;-54
2021/03/07 02:33:23;;;;;;;4.20;1.77;;;;;;;-4.22;51.85;98522.78;5049911;28;20389;-55
2021/03/07 02:35:58;;;;;;;4.38;1.85;;;;;;;-4.19;51.67;98503.53;5050382;28;20061;-54
2021/03/07 02:38:24;;;;;;;3.30;1.60;;;;;;;-4.14;51.58;98505.91;5049771;28;20084;-56
2021/03/07 02:40:56;;;;;;;5.50;1.90;;;;;;;-4.14;51.78;98505.91;5050344;28;20051;-58
2021/03/07 02:43:22;;;;;;;4.05;1.70;;;;;;;-4.02;51.63;98492.34;5050878;28;20036;-57
2021/03/07 02:45:48;;;;;;;7.38;1.60;;;;;;;-4.09;51.09;98476.06;5049956;28;20033;-57
2021/03/07 02:48:20;;;;;;;5.10;1.85;;;;;;;-3.98;51.20;98479.97;5050180;28;20033;-56
2021/03/07 02:50:48;;;;;;;5.40;1.80;;;;;;;-4.00;50.98;98443.47;5053368;28;20098;-52
2021/03/07 02:53:25;;;;;;;7.95;1.70;;;;;;;-3.82;50.84;98448.81;5061453;28;20048;-56
2021/03/07 02:55:56;;;;;;;2.80;1.75;;;;;;;-4.18;51.01;98380.59;5060005;28;20227;-57
2021/03/07 02:58:23;;;;;;;2.83;1.40;;;;;;;-3.99;50.70;98418.16;5068698;28;20047;-53
2021/03/07 03:00:54;;;;;;;2.58;1.50;;;;;;;-3.82;51.23;98433.94;5069358;28;20420;-52
2021/03/07 03:03:25;;;;;;;4.93;1.88;;;;;;;-3.83;50.92;98431.41;5067915;28;20416;-55
2021/03/07 03:05:52;;;;;;;6.40;1.70;;;;;;;-4.06;51.02;98365.31;5069480;28;20090;-54
2021/03/07 03:08:17;;;;;;;5.22;1.40;;;;;;;-4.33;51.09;98347.31;5070128;28;20079;-53
2021/03/07 03:10:44;;;;;;;3.55;1.60;;;;;;;-3.80;51.16;98426.06;5069811;28;20052;-54
2021/03/07 03:13:10;;;;;;;4.50;1.45;;;;;;;-3.77;51.42;98405.81;5069797;28;20044;-52
2021/03/07 03:15:37;;;;;;;5.70;1.70;;;;;;;-3.79;51.26;98397.19;5070693;28;20071;-55
2021/03/07 03:18:04;;;;;;;3.00;1.73;;;;;;;-3.72;51.24;98386.47;5073424;28;20037;-55
2021/03/07 03:20:30;;;;;;;4.75;1.63;;;;;;;-3.69;51.17;98371.47;5073367;28;20040;-54
2021/03/07 03:22:56;;;;;;;6.03;1.50;;;;;;;-3.60;51.16;98375.44;5074068;28;20040;-57
2021/03/07 03:25:22;;;;;;;13.00;1.73;;;;;;;-3.57;51.29;98356.16;5073461;28;20044;-56
2021/03/07 03:27:47;;;;;;;5.75;2.00;;;;;;;-3.61;51.28;98342.34;5060831;28;20049;-58
2021/03/07 03:30:17;;;;;;;3.53;2.05;;;;;;;-3.61;51.98;98337.13;5056613;28;20032;-51
2021/03/07 03:32:43;;;;;;;6.63;2.05;;;;;;;-3.61;51.82;98331.88;5054160;28;20492;-54
2021/03/07 03:35:10;;;;;;;7.57;1.83;;;;;;;-3.76;52.11;98315.97;5053710;28;20029;-56
2021/03/07 03:37:38;;;;;;;6.20;1.73;;;;;;;-3.92;52.27;98267.94;5073177;28;20028;-59
2021/03/07 03:40:08;;;;;;;8.85;1.85;;;;;;;-3.65;52.88;98310.25;5071456;28;20033;-52
2021/03/07 03:42:38;;;;;;;7.15;2.05;;;;;;;-3.62;53.27;98299.66;5072003;28;20044;-57
2021/03/07 03:45:07;;;;;;;3.38;1.38;;;;;;;-4.02;53.13;98217.84;5073389;28;20899;-58
2021/03/07 03:47:35;;;;;;;5.68;2.05;;;;;;;-3.64;53.86;98301.47;5072645;28;20052;-53
2021/03/07 03:50:03;;;;;;;5.00;1.50;;;;;;;-3.59;53.80;98292.59;5065688;28;20028;-56
2021/03/07 03:52:29;;;;;;;7.05;2.13;;;;;;;-3.66;54.24;98279.78;5054545;28;20062;-55
2021/03/07 03:55:02;;;;;;;3.42;1.55;;;;;;;-3.67;54.30;98254.53;5059534;28;20051;-56
2021/03/07 03:57:31;;;;;;;4.45;2.10;;;;;;;-3.62;54.40;98254.31;5054162;28;20041;-58
2021/03/07 03:59:59;;;;;;;8.93;1.70;;;;;;;-3.56;54.26;98251.41;5061770;28;20569;-55
2021/03/07 04:02:26;;;;;;;5.68;2.00;;;;;;;-3.56;54.33;98238.31;5072992;28;20052;-58
2021/03/07 04:04:57;;;;;;;3.38;1.50;;;;;;;-3.84;54.62;98174.28;5070775;28;20154;-57
2021/03/07 04:07:24;;;;;;;5.00;1.92;;;;;;;-3.61;55.00;98219.41;5072137;28;20047;-53
2021/03/07 04:09:52;;;;;;;5.35;1.52;;;;;;;-3.53;54.68;98216.41;5072895;28;20047;-54
2021/03/07 04:12:19;;;;;;;3.50;1.85;;;;;;;-3.54;54.64;98199.84;5072935;28;20032;-53
2021/03/07 04:14:46;;;;;;;2.78;1.60;;;;;;;-3.44;54.70;98194.19;5072691;28;20028;-51
2021/03/07 04:17:13;;;;;;;5.82;2.17;;;;;;;-3.40;55.11;98200.94;5071128;28;20116;-58
2021/03/07 04:19:39;;;;;;;4.88;1.65;;;;;;;-3.40;54.82;98183.47;5072557;28;20123;-58
2021/03/07 04:22:05;;;;;;;4.07;2.28;;;;;;;-3.36;54.74;98174.56;5072462;28;20174;-56
2021/03/07 04:24:30;;;;;;;4.07;1.92;;;;;;;-3.32;54.84;98185.72;5057582;28;20120;-55
2021/03/07 04:26:57;;;;;;;2.80;1.92;;;;;;;-3.25;54.92;98162.69;5062321;28;20131;-55
2021/03/07 04:29:24;;;;;;;3.47;1.73;;;;;;;-3.28;54.93;98147.97;5064510;28;20115;-53
2021/03/07 04:31:51;;;;;;;3.75;1.77;;;;;;;-3.14;54.89;98165.59;5065886;28;20047;-59
2021/03/07 04:34:17;;;;;;;4.65;1.85;;;;;;;-3.09;54.52;98149.66;5051815;28;20033;-55
2021/03/07 04:36:43;;;;;;;4.85;1.88;;;;;;;-3.11;55.14;98134.03;5052001;28;20573;-57
2021/03/07 04:39:09;;;;;;;3.67;2.20;;;;;;;-3.18;54.84;98117.81;5052093;28;20064;-53
2021/03/07 04:41:34;;;;;;;5.38;2.00;;;;;;;-3.08;55.31;98123.41;5052624;28;20056;-57
2021/03/07 04:44:01;;;;;;;5.43;1.90;;;;;;;-3.01;55.17;98104.75;5052317;28;20127;-56
2021/03/07 04:46:27;;;;;;;4.45;2.20;;;;;;;-3.13;55.04;98096.63;5051877;28;20036;-57
2021/03/07 04:48:54;;;;;;;5.45;1.77;;;;;;;-2.94;55.61;98098.25;5051180;28;20045;-55
2021/03/07 04:51:20;;;;;;;8.63;2.42;;;;;;;-2.94;55.52;98090.41;5068457;28;20056;-56
2021/03/07 04:53:46;;;;;;;3.13;2.03;;;;;;;-2.96;55.15;98100.13;5056454;28;20040;-55
2021/03/07 04:56:12;;;;;;;6.65;2.67;;;;;;;-2.89;55.34;98075.31;5057121;28;20033;-53
2021/03/07 04:58:37;;;;;;;6.05;2.40;;;;;;;-2.89;55.53;98084.00;5051635;28;20068;-55
2021/03/07 05:01:04;;;;;;;3.30;1.75;;;;;;;-2.80;55.27;98055.59;5052050;28;20106;-52
2021/03/07 05:03:30;;;;;;;3.83;1.63;;;;;;;-2.76;55.83;98057.97;5052234;28;20071;-55
2021/03/07 05:05:56;;;;;;;6.05;2.08;;;;;;;-2.97;55.59;98027.72;5051593;28;20041;-53
2021/03/07 05:08:21;;;;;;;10.95;2.22;;;;;;;-2.82;55.79;98042.59;5052452;28;20033;-56
2021/03/07 05:10:47;;;;;;;5.97;2.15;;;;;;;-2.78;56.26;98032.78;5051613;28;20048;-53
2021/03/07 05:13:12;;;;;;;6.25;2.58;;;;;;;-2.76;56.27;98025.72;5051524;28;20397;-56
2021/03/07 05:15:38;;;;;;;12.88;2.25;;;;;;;-2.76;56.23;98031.78;5051326;28;20072;-54
2021/03/07 05:18:05;;;;;;;4.68;2.42;;;;;;;-2.70;55.99;98016.66;5051425;28;20029;-54
2021/03/07 05:20:32;;;;;;;7.45;2.38;;;;;;;-2.58;55.67;98018.59;5052941;28;20043;-55
2021/03/07 05:22:57;;;;;;;5.53;2.10;;;;;;;-2.55;56.22;98010.56;5051032;28;20029;-56
2021/03/07 05:25:23;;;;;;;5.60;2.40;;;;;;;-3.07;56.04;97915.66;5051154;28;20105;-53
2021/03/07 05:27:48;;;;;;;5.28;2.22;;;;;;;-2.53;55.87;97995.59;5051152;28;20082;-55
2021/03/07 05:30:14;;;;;;;7.97;2.28;;;;;;;-2.96;55.97;97929.91;5050322;28;20068;-55
2021/03/07 05:32:40;;;;;;;4.63;2.70;;;;;;;-2.56;56.07;97995.78;5056764;28;20413;-53
2021/03/07 05:35:06;;;;;;;4.38;2.40;;;;;;;-2.53;56.30;97992.97;5057101;28;20040;-59
2021/03/07 05:37:33;;;;;;;4.28;2.17;;;;;;;-2.50;56.32;97974.47;5053606;28;20037;-57
2021/03/07 05:39:58;;;;;;;6.38;2.35;;;;;;;-2.46;56.03;97977.75;5052344;28;20090;-57
2021/03/07 05:42:24;;;;;;;7.00;2.70;;;;;;;-2.55;56.23;97960.78;5050580;28;20033;-56
2021/03/07 05:44:49;;;;;;;6.57;2.35;;;;;;;-2.56;56.34;97987.91;5051668;28;20435;-57
2021/03/07 05:47:17;;;;;;;8.02;2.28;;;;;;;-2.72;56.38;97947.78;5050885;28;20076;-59
2021/03/07 05:49:42;;;;;;;4.30;2.05;;;;;;;-2.49;56.75;97967.47;5057140;28;20520;-57
2021/03/07 05:52:09;;;;;;;5.13;2.10;;;;;;;-2.76;57.06;97918.31;5053873;28;20060;-51
2021/03/07 05:54:41;;;;;;;3.90;2.10;;;;;;;-2.41;56.69;97977.47;5066687;28;20047;-56
2021/03/07 05:57:07;;;;;;;6.97;2.33;;;;;;;-2.45;56.87;97972.41;5060757;28;20032;-54
2021/03/07 05:59:35;;;;;;;4.45;2.13;;;;;;;-2.34;57.08;97968.34;5050853;28;20101;-56
2021/03/07 06:02:02;;;;;;;4.95;2.30;;;;;;;-2.38;57.52;97961.59;5050407;28;20075;-58
2021/03/07 06:04:28;;;;;;;4.75;2.22;;;;;;;-2.49;57.35;97949.13;5048836;28;20033;-51
2021/03/07 06:06:53;;;;;;;3.95;2.25;;;;;;;-2.32;57.38;97958.63;5050631;28;20044;-55
2021/03/07 06:09:29;;;;;;;4.25;2.20;;;;;;;-2.23;57.56;97938.88;5051190;28;20075;-55
2021/03/07 06:11:56;;;;;;;8.40;2.20;;;;;;;-2.16;56.86;97948.06;5049969;28;20071;-57
2021/03/07 06:14:27;;;;;;;9.43;2.67;;;;;;;-2.14;57.44;97945.38;5049578;28;20045;-53
2021/03/07 06:17:10;;;;;;;3.67;1.90;;;;;;;-2.08;57.50;97921.41;5050080;28;20054;-55
2021/03/07 06:19:57;;;;;;;10.30;2.28;;;;;;;-2.04;57.17;97922.91;5050331;28;20162;-53
2021/03/07 06:22:24;;;;;;;6.43;2.60;;;;;;;-2.13;56.90;97899.88;5050632;28;20130;-52
2021/03/07 06:24:50;;;;;;;4.40;2.40;;;;;;;-1.94;57.06;97900.41;5049489;28;20032;-55
2021/03/07 06:27:17;;;;;;;7.85;2.40;;;;;;;-1.88;56.93;97901.84;5049751;28;20035;-54
2021/03/07 06:30:06;;;;;;;9.50;2.70;;;;;;;-1.77;57.53;97890.69;5049759;28;20396;-57
2021/03/07 06:32:43;;;;;;;4.65;2.28;;;;;;;-1.74;57.01;97899.22;5049966;28;20485;-55
2021/03/07 06:35:11;;;;;;;7.32;2.60;;;;;;;-1.69;56.70;97884.97;5051467;28;20025;-56
2021/03/07 06:37:57;;;;;;;3.83;2.28;;;;;;;-1.66;57.07;97863.78;5050082;28;20039;-56
2021/03/07 06:40:33;;;;;;;3.85;2.20;;;;;;;-1.63;58.04;97863.59;5052365;28;20037;-55
2021/03/07 06:43:00;;;;;;;6.50;2.45;;;;;;;-1.61;57.36;97856.47;5062810;28;20072;-59
2021/03/07 06:45:41;;;;;;;3.53;2.28;;;;;;;-1.52;57.63;97858.53;5061088;28;20039;-58
2021/03/07 06:48:08;;;;;;;5.45;2.90;;;;;;;-1.46;57.28;97837.16;5052421;28;20124;-51
2021/03/07 06:50:35;;;;;;;5.95;2.20;;;;;;;-1.41;57.39;97836.88;5062475;28;20037;-56
2021/03/07 06:53:01;;;;;;;15.20;3.63;;;;;;;-1.33;56.89;97852.97;5058234;28;20044;-51
2021/03/07 06:55:42;;;;;;;7.60;2.75;;;;;;;-1.25;57.21;97827.97;5066304;28;20071;-51
2021/03/07 06:58:17;;;;;;;6.65;2.70;;;;;;;-1.22;57.43;97825.16;5059499;28;20032;-48
2021/03/07 07:00:43;;;;;;;;;;;;;;;-1.07;55.95;97803.16;5056325;28;20110;-50
2021/03/07 07:03:14;;;;;;;7.43;2.78;;;;;;;-1.02;56.71;97808.94;5070913;28;19920;-54
2021/03/07 07:05:45;;;;;;;4.75;2.72;;;;;;;-0.99;56.70;97825.44;5058798;28;20043;-59
2021/03/07 07:08:12;;;;;;;7.78;2.92;;;;;;;-0.97;56.13;97795.53;5058242;28;20124;-56
2021/03/07 07:10:56;;;;;;;4.93;2.58;;;;;;;-0.95;57.06;97790.19;5060058;28;20057;-59
2021/03/07 07:13:24;;;;;;;5.18;2.70;;;;;;;-0.90;56.70;97772.31;5060602;28;20049;-59
2021/03/07 07:16:03;;;;;;;6.00;2.40;;;;;;;-0.88;56.29;97762.53;5057437;28;20100;-54
2021/03/07 07:18:31;;;;;;;5.72;2.35;;;;;;;-0.85;56.44;97775.47;5061676;28;20464;-57
2021/03/07 07:20:57;;;;;;;8.40;3.10;;;;;;;-0.79;56.21;97759.28;5073592;28;20029;-55
2021/03/07 07:23:23;;;;;;;6.88;2.90;;;;;;;-0.81;55.91;97723.56;5073545;28;20044;-58
2021/03/07 07:25:49;;;;;;;6.32;2.80;;;;;;;-0.61;55.76;97751.13;5060779;28;20037;-59
2021/03/07 07:28:15;;;;;;;7.75;3.30;;;;;;;-0.76;55.80;97730.19;5072666;28;20064;-56
2021/03/07 07:30:41;;;;;;;6.75;3.38;;;;;;;-0.68;55.57;97724.41;5073568;28;20085;-56
2021/03/07 07:33:15;;;;;;;7.85;2.83;;;;;;;-0.66;55.85;97719.06;5072469;28;20068;-55
2021/03/07 07:35:42;;;;;;;8.30;2.95;;;;;;;-0.45;55.80;97730.72;5062570;28;20036;-55
2021/03/07 07:38:11;;;;;;;6.60;2.90;;;;;;;-0.44;55.46;97716.63;5065923;28;20043;-55
2021/03/07 07:40:39;;;;;;;7.60;3.70;;;;;;;-0.40;55.92;97706.72;5071845;28;20064;-52
2021/03/07 07:43:05;;;;;;;10.73;3.08;;;;;;;-0.30;55.57;97706.91;5071550;28;20088;-57
2021/03/07 07:45:31;;;;;;;6.20;3.00;;;;;;;-0.22;54.85;97686.19;5073085;28;20029;-54
2021/03/07 07:47:57;;;;;;;6.57;3.38;;;;;;;-0.26;54.83;97697.84;5071401;28;20051;-54
2021/03/07 07:50:32;;;;;;;11.35;3.65;;;;;;;-0.26;54.83;97687.34;5053570;28;20036;-60
2021/03/07 07:53:00;;;;;;;8.40;3.60;;;;;;;-0.28;55.05;97665.56;5061227;28;20484;-56
2021/03/07 07:55:45;;;;;;;5.95;2.97;;;;;;;-0.18;54.80;97690.28;5052807;28;20024;-56
2021/03/07 07:58:36;;;;;;;7.05;3.15;;;;;;;-0.08;54.64;97674.69;5065349;28;20036;-56
2021/03/07 08:01:12;;;;;;;8.80;2.97;;;;;;;-0.08;54.65;97676.47;5060729;28;20080;-60
2021/03/07 08:03:45;;;;;;;5.88;3.15;;;;;;;-0.08;54.82;97655.41;5067719;28;20055;-59
2021/03/07 08:06:39;;;;;;;8.88;3.60;;;;;;;0.18;55.02;97661.44;5056960;28;20447;-56
2021/03/07 08:09:38;;;;;;;5.72;2.92;;;;;;;0.26;54.83;97655.63;5051259;28;20043;-57
2021/03/07 08:12:43;;;;;;;7.40;3.40;;;;;;;0.33;54.80;97654.22;5052572;28;20040;-54
2021/03/07 08:15:27;;;;;;;6.38;3.97;;;;;;;0.40;54.49;97642.25;5053547;28;20132;-59
2021/03/07 08:18:00;;;;;;;8.85;3.90;;;;;;;0.37;54.16;97645.13;5068664;28;20032;-57
2021/03/07 08:20:37;;;;;;;9.23;3.50;;;;;;;0.37;54.00;97644.31;5062715;28;20103;-58
2021/03/07 08:23:07;;;;;;;6.22;2.72;;;;;;;0.36;53.91;97630.28;5063868;28;20527;-57
2021/03/07 08:26:02;;;;;;;8.93;4.85;;;;;;;0.39;53.93;97627.44;5054572;28;20047;-52
2021/03/07 08:28:31;;;;;;;9.23;4.60;;;;;;;0.47;54.41;97629.50;5050041;28;20045;-59
2021/03/07 08:31:21;;;;;;;9.00;3.90;;;;;;;0.59;53.75;97634.78;5051953;28;20068;-55
2021/03/07 08:33:47;;;;;;;10.13;3.95;;;;;;;0.67;53.62;97637.69;5062021;28;20048;-50
2021/03/07 08:36:13;;;;;;;11.85;4.15;;;;;;;0.75;53.58;97621.31;5063825;28;20103;-54
2021/03/07 08:38:56;;;;;;;8.15;4.18;;;;;;;0.79;53.32;97614.84;5051173;28;20152;-56
2021/03/07 08:41:36;;;;;;;9.93;4.13;;;;;;;0.77;53.91;97622.03;5058628;28;20029;-54
2021/03/07 08:44:10;;;;;;;8.95;4.60;;;;;;;0.81;53.72;97602.41;5063711;28;20447;-57
2021/03/07 08:46:38;;;;;;;6.32;3.33;;;;;;;0.80;53.71;97601.56;5056587;28;20032;-57
2021/03/07 08:49:11;;;;;;;11.35;4.28;;;;;;;0.78;53.94;97600.84;5061806;28;20036;-59
2021/03/07 08:51:39;;;;;;;7.85;3.90;;;;;;;0.79;53.61;97606.97;5058154;28;20124;-57
2021/03/07 08:54:09;;;;;;;8.00;3.80;;;;;;;0.69;53.92;97598.91;5057764;28;20432;-59
2021/03/07 08:56:37;;;;;;;6.93;3.60;;;;;;;0.70;53.96;97590.88;5058560;28;20045;-59
2021/03/07 08:59:04;;;;;;;8.57;3.72;;;;;;;0.74;54.51;97574.88;5062787;28;20437;-58
2021/03/07 09:01:32;;;;;;;10.40;4.15;;;;;;;0.81;54.14;97581.34;5071746;28;20068;-52
2021/03/07 09:03:59;;;;;;;13.27;4.57;;;;;;;0.81;54.15;97570.78;5069991;28;20047;-59
2021/03/07 09:06:45;;;;;;;9.82;3.78;;;;;;;0.57;54.01;97526.94;5067935;28;20370;-57
2021/03/07 09:09:20;;;;;;;10.45;4.45;;;;;;;0.58;54.37;97523.34;5071801;28;20089;-57
2021/03/07 09:11:53;;;;;;;9.30;4.18;;;;;;;0.90;53.83;97559.53;5064546;28;20037;-60
2021/03/07 09:14:30;;;;;;;8.05;4.50;;;;;;;0.77;54.45;97543.84;5058761;28;20045;-56
2021/03/07 09:16:55;;;;;;;11.32;5.82;;;;;;;0.97;54.17;97558.13;5052370;28;20033;-56
2021/03/07 09:19:34;;;;;;;9.25;4.45;;;;;;;0.97;54.51;97555.50;5064679;28;20044;-54
2021/03/07 09:22:37;;;;;;;10.90;5.07;;;;;;;1.13;54.44;97551.63;5070120;28;20028;-56
2021/03/07 09:25:09;;;;;;;10.05;4.65;;;;;;;1.19;54.11;97556.41;5070603;28;20094;-52
2021/03/07 09:27:38;;;;;;;7.75;3.80;;;;;;;1.33;53.54;97559.78;5071251;28;20032;-56
2021/03/07 09:30:15;;;;;;;5.75;3.85;;;;;;;1.41;53.88;97531.84;5070130;28;20064;-58
2021/03/07 09:32:45;;;;;;;8.00;4.88;;;;;;;1.20;53.37;97486.91;5069090;28;20032;-56
2021/03/07 09:35:26;;;;;;;12.18;4.78;;;;;;;1.68;53.13;97541.13;5070230;28;20043;-58
2021/03/07 09:37:59;;;;;;;8.77;4.65;;;;;;;1.74;52.98;97523.13;5070983;28;20102;-58
2021/03/07 09:40:39;;;;;;;9.30;4.43;;;;;;;1.82;52.61;97539.19;5070575;28;20028;-58
2021/03/07 09:43:10;;;;;;;8.07;3.78;;;;;;;1.92;52.45;97547.16;5050214;28;20029;-58
2021/03/07 09:45:44;;;;;;;6.35;4.32;;;;;;;1.81;52.55;97506.66;5050529;28;20118;-56
2021/03/07 09:48:10;;;;;;;9.40;4.35;;;;;;;1.86;52.55;97530.03;5051008;28;20082;-57
2021/03/07 09:50:36;;;;;;;8.88;4.75;;;;;;;1.78;52.41;97524.53;5050594;28;20040;-60
2021/03/07 09:53:04;;;;;;;7.53;4.32;;;;;;;1.33;52.94;97449.03;5051773;28;20401;-59
2021/03/07 09:55:32;;;;;;;8.07;4.68;;;;;;;1.77;52.57;97530.78;5050288;28;20463;-56
2021/03/07 09:58:06;;;;;;;9.60;5.10;;;;;;;1.76;52.57;97522.03;5049516;28;20603;-55
2021/03/07 10:00:33;;;;;;;5.70;4.00;;;;;;;1.61;52.66;97502.19;5050698;28;20061;-56
2021/03/07 10:03:00;;;;;;;7.28;4.22;;;;;;;1.62;52.76;97511.75;5050404;28;20443;-58
2021/03/07 10:05:27;;;;;;;7.47;4.30;;;;;;;1.58;53.00;97513.84;5052696;28;20071;-51
2021/03/07 10:07:53;;;;;;;6.97;4.40;;;;;;;1.59;52.32;97502.31;5070362;28;20115;-55
2021/03/07 10:10:21;;;;;;;10.07;4.32;;;;;;;1.55;52.36;97501.72;5070745;28;20036;-58
2021/03/07 10:12:57;;;;;;;12.57;4.80;;;;;;;1.51;53.02;97495.03;5067061;28;20040;-55
2021/03/07 10:15:33;;;;;;;7.55;4.20;;;;;;;1.50;52.68;97501.25;5057689;28;20142;-54
2021/03/07 10:18:02;;;;;;;9.02;4.80;;;;;;;1.48;52.86;97497.06;5051570;28;20036;-54
2021/03/07 10:20:35;;;;;;;7.65;4.65;;;;;;;1.44;53.48;97507.00;5049979;28;20033;-57
2021/03/07 10:23:01;;;;;;;10.57;4.50;;;;;;;1.04;53.39;97421.44;5050320;28;20171;-56
2021/03/07 10:25:35;;;;;;;8.75;4.40;;;;;;;1.39;52.94;97478.41;5050241;28;20474;-55
2021/03/07 10:28:07;;;;;;;9.75;4.38;;;;;;;1.40;53.38;97479.22;5049926;28;20074;-53
2021/03/07 10:30:34;;;;;;;6.55;4.68;;;;;;;1.36;53.34;97491.81;5051498;28;20056;-52
2021/03/07 10:33:16;;;;;;;9.38;4.70;;;;;;;1.21;53.88;97472.81;5050019;28;20099;-52
2021/03/07 10:35:58;;;;;;;7.10;4.82;;;;;;;1.24;54.36;97471.72;5048765;28;20029;-54
2021/03/07 10:38:23;;;;;;;7.30;4.32;;;;;;;1.16;54.14;97479.41;5048425;28;20455;-60
2021/03/07 10:40:49;;;;;;;6.00;4.03;;;;;;;1.17;54.34;97465.25;5056796;28;20033;-58
2021/03/07 10:43:14;;;;;;;9.63;4.80;;;;;;;1.06;54.29;97450.31;5048854;28;20481;-54
2021/03/07 10:45:40;;;;;;;8.45;4.97;;;;;;;1.12;54.35;97455.09;5049266;28;20461;-52
2021/03/07 10:48:15;;;;;;;6.88;4.70;;;;;;;1.32;54.47;97463.19;5049745;28;20043;-55
2021/03/07 10:50:44;;;;;;;6.00;4.32;;;;;;;1.09;53.67;97397.34;5050180;28;20550;-56
2021/03/07 10:53:11;;;;;;;8.40;4.68;;;;;;;1.40;54.09;97458.13;5050863;28;20425;-56
2021/03/07 10:55:37;;;;;;;10.27;4.60;;;;;;;1.36;54.22;97448.78;5049701;28;20033;-53
2021/03/07 10:58:02;;;;;;;9.23;5.25;;;;;;;1.31;54.46;97457.06;5049949;28;20096;-53
2021/03/07 11:00:28;;;;;;;7.13;4.60;;;;;;;1.32;54.63;97452.66;5049628;28;20057;-54
2021/03/07 11:02:54;;;;;;;7.15;4.53;;;;;;;1.33;54.54;97454.31;5050998;28;20045;-55
2021/03/07 11:05:20;;;;;;;8.82;4.78;;;;;;;1.34;54.50;97445.44;5050196;28;20087;-56
2021/03/07 11:07:46;;;;;;;9.45;5.18;;;;;;;1.12;54.19;97395.31;5050074;28;20119;-51
2021/03/07 11:10:15;;;;;;;7.05;4.70;;;;;;;1.51;54.26;97452.81;5049573;28;20063;-53
2021/03/07 11:12:40;;;;;;;7.97;4.60;;;;;;;1.51;54.09;97450.19;5050617;28;20037;-51
2021/03/07 11:15:08;;;;;;;11.70;4.63;;;;;;;1.58;54.38;97447.91;5050048;28;20029;-55
2021/03/07 11:17:34;;;;;;;7.57;4.97;;;;;;;1.61;54.13;97434.44;5069325;28;20132;-56
2021/03/07 11:19:59;;;;;;;7.55;5.05;;;;;;;1.62;53.97;97444.03;5069579;28;20399;-53
2021/03/07 11:22:25;;;;;;;13.25;5.53;;;;;;;1.53;54.45;97426.31;5070001;28;20068;-56
2021/03/07 11:24:51;;;;;;;8.77;5.13;;;;;;;1.60;54.45;97445.13;5068593;28;20110;-51
2021/03/07 11:27:17;;;;;;;9.98;4.80;;;;;;;1.28;54.46;97408.09;5059422;28;20041;-55
2021/03/07 11:29:42;;;;;;;7.65;5.00;;;;;;;1.51;54.50;97444.06;5049303;28;20064;-55
2021/03/07 11:32:09;;;;;;;9.93;5.40;;;;;;;1.54;54.62;97430.63;5049727;28;20033;-56
2021/03/07 11:34:35;;;;;;;10.65;5.03;;;;;;;1.55;54.51;97422.59;5049794;28;20040;-56
2021/03/07 11:37:00;;;;;;;10.55;5.75;;;;;;;1.60;54.47;97424.88;5053553;28;20051;-55
2021/03/07 11:39:26;;;;;;;8.55;5.03;;;;;;;1.69;54.25;97420.63;5053416;28;20037;-55
2021/03/07 11:41:51;;;;;;;7.82;5.18;;;;;;;1.71;54.23;97426.63;5053532;28;20091;-50
2021/03/07 11:44:17;;;;;;;11.10;5.22;;;;;;;1.68;54.01;97427.69;5056723;28;20116;-52
2021/03/07 11:46:42;;;;;;;9.00;4.78;;;;;;;1.73;54.21;97414.13;5063958;28;20532;-50